createdAt,value
2019-01-31T00:01:31.372Z,29.40
2019-01-31T00:04:21.365Z,28.73
2019-01-31T00:07:09.247Z,28.40
2019-01-31T00:10:20.211Z,28.30
2019-01-31T00:13:28.236Z,28.80
2019-01-31T00:16:18.165Z,25.87
2019-01-31T00:19:35.854Z,28.70
2019-01-31T00:22:52.340Z,26.83
2019-01-31T00:26:01.369Z,27.33
2019-01-31T00:28:50.138Z,28.27
2019-01-31T00:31:50.655Z,29.27
2019-01-31T00:35:08.908Z,28.27
2019-01-31T00:38:07.131Z,28.93
2019-01-31T00:41:45.103Z,28.53
2019-01-31T00:44:41.079Z,27.23
2019-01-31T00:47:47.355Z,28.30
2019-01-31T00:50:52.975Z,28.70
2019-01-31T00:54:01.324Z,29.50
2019-01-31T00:57:32.557Z,28.73
2019-01-31T01:00:43.963Z,27.57
2019-01-31T01:04:01.251Z,29.50
2019-01-31T01:07:13.837Z,28.87
2019-01-31T01:10:03.358Z,29.10
2019-01-31T01:13:03.498Z,26.20
2019-01-31T01:16:03.499Z,27.33
2019-01-31T01:19:22.475Z,27.83
2019-01-31T01:22:19.673Z,29.37
2019-01-31T01:25:33.958Z,27.33
2019-01-31T01:29:36.486Z,28.63
2019-01-31T01:33:04.842Z,27.57
2019-01-31T01:36:03.848Z,28.10
2019-01-31T01:39:41.665Z,27.77
2019-01-31T01:42:36.267Z,27.10
2019-01-31T01:46:00.963Z,27.77
2019-01-31T01:49:07.477Z,29.77
2019-01-31T01:51:49.486Z,30.57
2019-01-31T01:55:11.809Z,30.80
2019-01-31T01:58:15.342Z,28.57
2019-01-31T02:01:51.926Z,30.60
2019-01-31T02:05:00.996Z,31.67
2019-01-31T02:08:32.414Z,30.60
2019-01-31T02:11:34.455Z,30.53
2019-01-31T02:15:00.439Z,30.73
2019-01-31T02:17:49.355Z,32.30
2019-01-31T02:21:01.704Z,29.83
2019-01-31T02:24:03.529Z,30.97
2019-01-31T02:27:18.666Z,29.47
2019-01-31T02:30:25.656Z,30.07
2019-01-31T02:33:23.767Z,32.63
2019-01-31T02:36:17.619Z,28.90
2019-01-31T02:39:52.056Z,32.30
2019-01-31T02:42:45.711Z,32.10
2019-01-31T02:45:55.152Z,30.03
2019-01-31T02:48:47.731Z,32.10
2019-01-31T02:52:05.716Z,31.00
2019-01-31T02:55:23.706Z,29.43
2019-01-31T02:58:08.882Z,31.07
2019-01-31T03:01:25.457Z,32.73
2019-01-31T03:04:14.561Z,32.20
2019-01-31T03:07:31.143Z,31.83
2019-01-31T03:10:41.069Z,33.00
2019-01-31T03:13:51.641Z,32.00
2019-01-31T03:17:10.032Z,31.00
2019-01-31T03:20:27.295Z,31.30
2019-01-31T03:23:54.814Z,32.00
2019-01-31T03:27:23.971Z,34.03
2019-01-31T03:30:52.509Z,32.30
2019-01-31T03:33:57.414Z,31.97
2019-01-31T03:37:14.174Z,31.40
2019-01-31T03:40:28.805Z,31.60
2019-01-31T03:43:36.190Z,32.03
2019-01-31T03:46:40.278Z,31.63
2019-01-31T03:50:08.744Z,30.83
2019-01-31T03:53:17.722Z,28.80
2019-01-31T03:56:41.302Z,30.47
2019-01-31T03:59:25.056Z,31.10
2019-01-31T04:02:22.745Z,33.10
2019-01-31T04:05:25.322Z,33.10
2019-01-31T04:07:58.642Z,32.10
2019-01-31T04:10:30.723Z,32.23
2019-01-31T04:13:03.133Z,32.43
2019-01-31T04:15:33.827Z,32.20
2019-01-31T04:18:06.086Z,33.40
2019-01-31T04:20:39.568Z,33.17
2019-01-31T04:23:12.554Z,32.83
2019-01-31T04:25:45.724Z,30.97
2019-01-31T04:28:18.487Z,32.17
2019-01-31T04:30:57.850Z,32.53
2019-01-31T04:33:44.754Z,32.10
2019-01-31T04:36:19.329Z,31.67
2019-01-31T04:38:49.847Z,32.40
2019-01-31T04:41:21.002Z,32.93
2019-01-31T04:43:54.809Z,33.70
2019-01-31T04:46:30.205Z,30.27
2019-01-31T04:49:02.226Z,32.57
2019-01-31T04:51:35.674Z,32.30
2019-01-31T04:54:10.426Z,30.60
2019-01-31T04:56:43.718Z,32.20
2019-01-31T04:59:16.349Z,31.73
2019-01-31T05:01:48.868Z,32.40
2019-01-31T05:04:20.893Z,31.63
2019-01-31T05:06:53.494Z,30.60
2019-01-31T05:09:24.152Z,31.20
2019-01-31T05:11:54.884Z,32.23
2019-01-31T05:14:25.341Z,31.23
2019-01-31T05:16:59.083Z,32.37
2019-01-31T05:19:32.645Z,31.57
2019-01-31T05:22:05.736Z,32.03
2019-01-31T05:24:36.271Z,33.10
2019-01-31T05:27:08.062Z,31.53
2019-01-31T05:29:42.485Z,32.33
2019-01-31T05:32:14.197Z,31.80
2019-01-31T05:34:45.113Z,33.17
2019-01-31T05:37:16.155Z,31.60
2019-01-31T05:39:52.954Z,33.20
2019-01-31T05:42:23.816Z,31.40
2019-01-31T05:44:54.759Z,32.67
2019-01-31T05:47:45.718Z,31.90
2019-01-31T05:50:22.632Z,32.60
2019-01-31T05:52:54.837Z,33.90
2019-01-31T05:55:30.131Z,32.10
2019-01-31T05:58:14.831Z,32.50
2019-01-31T06:00:45.891Z,32.33
2019-01-31T06:03:16.997Z,32.13
2019-01-31T06:05:47.924Z,32.73
2019-01-31T06:08:19.400Z,33.30
2019-01-31T06:10:51.531Z,31.23
2019-01-31T06:13:23.892Z,31.30
2019-01-31T06:15:58.805Z,34.73
2019-01-31T06:18:43.080Z,31.97
2019-01-31T06:21:23.290Z,32.40
2019-01-31T06:23:56.198Z,33.27
2019-01-31T06:26:28.671Z,31.97
2019-01-31T06:29:01.844Z,34.53
2019-01-31T06:31:33.440Z,33.57
2019-01-31T06:34:07.527Z,34.07
2019-01-31T06:36:42.394Z,33.67
2019-01-31T06:39:14.798Z,33.37
2019-01-31T06:41:45.861Z,32.60
2019-01-31T06:44:18.807Z,34.37
2019-01-31T06:46:52.282Z,32.93
2019-01-31T06:49:25.279Z,34.00
2019-01-31T06:51:59.278Z,33.70
2019-01-31T06:54:31.252Z,33.47
2019-01-31T06:57:05.080Z,34.53
2019-01-31T06:59:38.734Z,33.70
2019-01-31T07:02:13.492Z,33.67
2019-01-31T07:04:47.253Z,35.23
2019-01-31T07:07:20.640Z,35.03
2019-01-31T07:09:53.512Z,33.73
2019-01-31T07:12:24.748Z,36.17
2019-01-31T07:14:59.622Z,34.40
2019-01-31T07:17:39.914Z,35.77
2019-01-31T07:20:13.441Z,36.10
2019-01-31T07:22:46.225Z,36.60
2019-01-31T07:25:24.666Z,36.90
2019-01-31T07:28:03.578Z,39.67
2019-01-31T07:30:34.434Z,36.17
2019-01-31T07:33:05.072Z,36.60
2019-01-31T07:35:36.107Z,37.83
2019-01-31T07:38:06.806Z,37.07
2019-01-31T07:40:38.663Z,38.73
2019-01-31T07:43:12.958Z,37.60
2019-01-31T07:45:47.565Z,37.10
2019-01-31T07:48:20.563Z,38.67
2019-01-31T07:50:55.260Z,39.57
2019-01-31T07:53:30.119Z,38.63
2019-01-31T07:56:01.123Z,37.53
2019-01-31T07:58:33.414Z,37.90
2019-01-31T08:01:07.815Z,38.43
2019-01-31T08:03:40.967Z,37.83
2019-01-31T08:06:16.452Z,36.53
2019-01-31T08:08:47.567Z,35.63
2019-01-31T08:11:19.010Z,35.87
2019-01-31T08:13:50.010Z,36.47
2019-01-31T08:16:28.555Z,35.20
2019-01-31T08:18:55.031Z,34.77
2019-01-31T08:21:27.899Z,35.30
2019-01-31T08:24:01.468Z,33.93
2019-01-31T08:26:37.884Z,64.40
2019-01-31T08:29:10.021Z,88.30
2019-01-31T08:31:40.910Z,53.37
2019-01-31T08:34:20.808Z,38.77
2019-01-31T08:36:51.855Z,35.83
2019-01-31T08:39:25.818Z,34.27
2019-01-31T08:42:05.781Z,33.60
2019-01-31T08:44:40.843Z,32.47
2019-01-31T08:47:30.900Z,33.10
2019-01-31T08:50:02.996Z,38.03
2019-01-31T08:52:34.161Z,50.87
2019-01-31T08:55:09.456Z,45.57
2019-01-31T08:57:42.183Z,36.87
2019-01-31T09:00:19.178Z,34.90
2019-01-31T09:02:49.830Z,36.80
2019-01-31T09:05:21.077Z,37.63
2019-01-31T09:07:54.847Z,33.17
2019-01-31T09:10:43.935Z,37.33
2019-01-31T09:13:21.682Z,33.00
2019-01-31T09:15:56.685Z,35.07
2019-01-31T09:18:28.834Z,33.73
2019-01-31T09:21:14.541Z,36.13
2019-01-31T09:24:36.407Z,34.90
2019-01-31T09:27:59.221Z,34.53
2019-01-31T09:31:00.995Z,35.10
2019-01-31T09:33:59.467Z,32.80
2019-01-31T09:37:06.614Z,32.67
2019-01-31T09:40:20.007Z,32.73
2019-01-31T09:43:43.166Z,34.13
2019-01-31T09:47:24.781Z,31.30
2019-01-31T09:50:59.932Z,32.87
2019-01-31T09:54:06.567Z,67.97
2019-01-31T09:57:15.183Z,54.30
2019-01-31T10:00:13.510Z,37.80
2019-01-31T10:03:17.960Z,34.70
2019-01-31T10:06:34.294Z,34.17
2019-01-31T10:09:59.636Z,34.20
2019-01-31T10:13:17.653Z,32.70
2019-01-31T10:16:11.541Z,34.90
2019-01-31T10:19:16.283Z,34.83
2019-01-31T10:22:25.573Z,34.83
2019-01-31T10:25:59.924Z,33.60
2019-01-31T10:28:57.528Z,32.13
2019-01-31T10:32:06.801Z,32.63
2019-01-31T10:35:03.159Z,33.20
2019-01-31T10:38:28.031Z,32.90
2019-01-31T10:41:55.217Z,29.60
2019-01-31T10:45:06.742Z,31.50
2019-01-31T10:48:38.763Z,31.37
2019-01-31T10:51:47.916Z,34.50
2019-01-31T10:54:46.383Z,34.17
2019-01-31T10:58:05.992Z,34.13
2019-01-31T11:01:18.957Z,35.77
2019-01-31T11:04:19.390Z,40.23
2019-01-31T11:07:32.191Z,43.07
2019-01-31T11:10:50.505Z,43.53
2019-01-31T11:13:44.610Z,41.53
2019-01-31T11:17:03.983Z,42.70
2019-01-31T11:20:30.656Z,42.87
2019-01-31T11:23:23.719Z,43.23
2019-01-31T11:26:39.322Z,44.23
2019-01-31T11:29:59.209Z,44.00
2019-01-31T11:33:01.025Z,45.53
2019-01-31T11:36:27.291Z,43.20
2019-01-31T11:40:00.584Z,44.87
2019-01-31T11:43:12.062Z,41.77
2019-01-31T11:46:36.968Z,41.73
2019-01-31T11:49:35.356Z,42.77
2019-01-31T11:52:50.821Z,41.50
2019-01-31T11:55:46.291Z,41.53
2019-01-31T11:58:53.682Z,38.67
2019-01-31T12:01:26.005Z,39.70
2019-01-31T12:04:17.404Z,39.07
2019-01-31T12:06:48.071Z,41.20
2019-01-31T12:09:21.643Z,40.50
2019-01-31T12:11:53.340Z,38.70
2019-01-31T12:14:24.764Z,39.50
2019-01-31T12:17:01.743Z,37.97
2019-01-31T12:19:33.831Z,39.90
2019-01-31T12:22:06.108Z,40.17
2019-01-31T12:24:37.021Z,39.50
2019-01-31T12:27:08.580Z,38.40
2019-01-31T12:29:43.816Z,38.73
2019-01-31T12:32:15.886Z,38.27
2019-01-31T12:35:01.797Z,39.27
2019-01-31T12:37:33.640Z,37.07
2019-01-31T12:40:13.561Z,37.63
2019-01-31T12:43:03.229Z,37.13
2019-01-31T12:45:54.340Z,37.07
2019-01-31T12:48:25.285Z,39.37
2019-01-31T12:50:56.177Z,38.87
2019-01-31T12:53:28.792Z,45.97
2019-01-31T12:56:17.488Z,37.53
2019-01-31T12:58:50.497Z,37.10
2019-01-31T13:01:21.617Z,34.57
2019-01-31T13:04:10.990Z,34.37
2019-01-31T13:06:44.217Z,33.90
2019-01-31T13:09:16.611Z,34.20
2019-01-31T13:11:49.650Z,31.73
2019-01-31T13:14:21.814Z,33.50
2019-01-31T13:17:07.717Z,32.53
2019-01-31T13:19:39.974Z,31.50
2019-01-31T13:22:12.602Z,32.40
2019-01-31T13:24:48.591Z,31.80
2019-01-31T13:27:19.217Z,30.90
2019-01-31T13:29:50.323Z,32.50
2019-01-31T13:32:21.129Z,33.73
2019-01-31T13:35:10.756Z,32.87
2019-01-31T13:37:44.108Z,31.73
2019-01-31T13:40:23.374Z,32.67
2019-01-31T13:42:58.026Z,32.40
2019-01-31T13:45:47.122Z,33.20
2019-01-31T13:48:19.395Z,30.60
2019-01-31T13:50:52.228Z,30.87
2019-01-31T13:53:26.144Z,30.73
2019-01-31T13:56:03.095Z,33.17
2019-01-31T13:58:34.200Z,32.80
2019-01-31T14:01:07.285Z,34.53
2019-01-31T14:03:44.437Z,35.50
2019-01-31T14:06:16.837Z,33.30
2019-01-31T14:09:04.207Z,32.23
2019-01-31T14:11:39.239Z,31.90
2019-01-31T14:14:16.727Z,31.70
2019-01-31T14:16:48.129Z,33.37
2019-01-31T14:19:21.743Z,32.07
2019-01-31T14:21:52.215Z,32.73
2019-01-31T14:24:22.790Z,33.07
2019-01-31T14:26:54.301Z,32.93
2019-01-31T14:29:27.225Z,31.87
2019-01-31T14:32:01.461Z,31.40
2019-01-31T14:34:40.577Z,31.53
2019-01-31T14:37:12.907Z,32.20
2019-01-31T14:39:43.347Z,33.30
2019-01-31T14:42:16.097Z,32.80
2019-01-31T14:44:50.118Z,31.70
2019-01-31T14:47:23.303Z,33.60
2019-01-31T14:50:00.219Z,33.87
2019-01-31T14:52:33.899Z,33.37
2019-01-31T14:55:07.331Z,32.57
2019-01-31T14:57:41.052Z,32.73
2019-01-31T15:00:18.195Z,35.60
2019-01-31T15:03:06.302Z,34.50
2019-01-31T15:05:40.216Z,35.87
2019-01-31T15:08:11.122Z,34.10
2019-01-31T15:10:45.929Z,32.90
2019-01-31T15:13:20.764Z,33.87
2019-01-31T15:15:52.994Z,34.47
2019-01-31T15:18:26.067Z,35.10
2019-01-31T15:21:01.952Z,32.70
2019-01-31T15:23:32.568Z,34.23
2019-01-31T15:26:04.207Z,33.30
2019-01-31T15:28:35.688Z,33.70
2019-01-31T15:31:06.386Z,34.90
2019-01-31T15:33:37.148Z,32.07
2019-01-31T15:36:08.113Z,31.00
2019-01-31T15:38:40.312Z,31.60
2019-01-31T15:41:14.498Z,33.53
2019-01-31T15:43:48.793Z,32.87
2019-01-31T15:46:20.755Z,33.73
2019-01-31T15:48:56.622Z,34.20
2019-01-31T15:51:39.864Z,31.80
2019-01-31T15:54:12.555Z,35.00
2019-01-31T15:56:45.716Z,34.23
2019-01-31T15:59:16.467Z,33.67
2019-01-31T16:01:47.998Z,33.83
2019-01-31T16:04:18.699Z,35.27
2019-01-31T16:06:49.491Z,35.97
2019-01-31T16:09:20.432Z,33.47
2019-01-31T16:11:54.156Z,35.47
2019-01-31T16:14:27.359Z,36.80
2019-01-31T16:17:03.054Z,35.93
2019-01-31T16:19:36.187Z,34.87
2019-01-31T16:22:07.387Z,36.20
2019-01-31T16:24:41.067Z,34.30
2019-01-31T16:27:12.101Z,32.33
2019-01-31T16:29:51.740Z,32.67
2019-01-31T16:32:22.266Z,35.77
2019-01-31T16:34:57.670Z,34.93
2019-01-31T16:37:32.078Z,34.70
2019-01-31T16:40:16.825Z,34.10
2019-01-31T16:42:47.576Z,34.70
2019-01-31T16:45:18.623Z,34.23
2019-01-31T16:47:55.734Z,37.50
2019-01-31T16:50:28.140Z,34.57
2019-01-31T16:53:00.987Z,36.17
2019-01-31T16:55:34.963Z,38.27
2019-01-31T16:58:08.801Z,55.33
2019-01-31T17:00:41.064Z,43.20
2019-01-31T17:03:14.770Z,39.00
2019-01-31T17:05:47.909Z,36.50
2019-01-31T17:08:21.856Z,37.50
2019-01-31T17:11:02.612Z,34.97
2019-01-31T17:13:51.584Z,34.60
2019-01-31T17:16:24.662Z,33.30
2019-01-31T17:19:00.705Z,35.13
2019-01-31T17:21:49.826Z,34.87
2019-01-31T17:24:40.162Z,34.63
2019-01-31T17:27:28.938Z,34.10
2019-01-31T17:30:08.145Z,35.60
2019-01-31T17:32:41.992Z,36.27
2019-01-31T17:35:26.787Z,32.17
2019-01-31T17:38:02.911Z,35.13
2019-01-31T17:40:38.939Z,33.90
2019-01-31T17:43:10.626Z,33.03
2019-01-31T17:45:45.106Z,36.20
2019-01-31T17:48:18.442Z,34.67
2019-01-31T17:50:53.306Z,31.83
2019-01-31T17:53:37.292Z,32.27
2019-01-31T17:56:09.110Z,32.70
2019-01-31T17:58:41.514Z,34.40
2019-01-31T18:01:15.944Z,34.17
2019-01-31T18:04:05.282Z,47.50
2019-01-31T18:06:37.779Z,41.33
2019-01-31T18:09:21.973Z,37.60
2019-01-31T18:12:00.978Z,35.37
2019-01-31T18:14:34.286Z,35.43
2019-01-31T18:17:07.170Z,34.53
2019-01-31T18:19:41.346Z,34.20
2019-01-31T18:22:14.057Z,34.47
2019-01-31T18:24:47.076Z,35.53
2019-01-31T18:27:20.464Z,33.67
2019-01-31T18:29:51.303Z,36.67
2019-01-31T18:32:21.930Z,35.00
2019-01-31T18:34:53.617Z,33.80
2019-01-31T18:37:27.296Z,33.17
2019-01-31T18:40:02.037Z,31.50
2019-01-31T18:42:37.512Z,35.33
2019-01-31T18:45:13.499Z,35.00
2019-01-31T18:47:48.099Z,32.00
2019-01-31T18:50:28.389Z,34.13
2019-01-31T18:53:17.397Z,32.33
2019-01-31T18:55:51.282Z,31.40
2019-01-31T18:58:22.166Z,33.10
2019-01-31T19:01:11.022Z,35.17
2019-01-31T19:04:00.061Z,32.50
2019-01-31T19:06:33.444Z,33.07
2019-01-31T19:09:13.203Z,32.13
2019-01-31T19:11:43.777Z,32.57
2019-01-31T19:14:14.621Z,33.07
2019-01-31T19:16:45.508Z,33.03
2019-01-31T19:19:22.052Z,33.50
2019-01-31T19:21:54.465Z,32.27
2019-01-31T19:24:27.471Z,32.57
2019-01-31T19:27:04.503Z,32.07
2019-01-31T19:29:38.535Z,30.50
2019-01-31T19:32:13.960Z,31.90
2019-01-31T19:35:06.304Z,32.27
2019-01-31T19:37:40.268Z,29.30
2019-01-31T19:40:18.594Z,31.90
2019-01-31T19:43:07.546Z,31.47
2019-01-31T19:45:44.677Z,29.20
2019-01-31T19:48:15.598Z,31.57
2019-01-31T19:50:48.241Z,31.43
2019-01-31T19:53:21.679Z,32.60
2019-01-31T19:55:54.700Z,30.70
2019-01-31T19:58:28.944Z,32.43
2019-01-31T20:01:02.343Z,32.20
2019-01-31T20:03:51.460Z,31.07
2019-01-31T20:06:27.413Z,31.63
2019-01-31T20:09:04.062Z,31.70
2019-01-31T20:11:37.163Z,33.77
2019-01-31T20:14:10.594Z,32.00
2019-01-31T20:16:44.977Z,32.53
2019-01-31T20:19:33.474Z,30.63
2019-01-31T20:22:08.194Z,31.63
2019-01-31T20:24:41.807Z,31.10
2019-01-31T20:27:12.843Z,31.67
2019-01-31T20:29:43.980Z,29.50
2019-01-31T20:32:14.768Z,30.50
2019-01-31T20:34:45.708Z,31.07
2019-01-31T20:37:16.617Z,29.67
2019-01-31T20:39:47.550Z,31.63
2019-01-31T20:42:18.239Z,30.20
2019-01-31T20:44:49.467Z,30.53
2019-01-31T20:47:22.778Z,30.07
2019-01-31T20:49:55.491Z,28.60
2019-01-31T20:52:33.523Z,29.10
2019-01-31T20:55:06.235Z,28.20
2019-01-31T20:58:09.385Z,27.10
2019-01-31T21:00:45.276Z,28.30
2019-01-31T21:03:18.205Z,29.20
2019-01-31T21:05:51.162Z,27.97
2019-01-31T21:08:22.666Z,27.03
2019-01-31T21:10:53.257Z,26.97
2019-01-31T21:13:23.650Z,27.27
2019-01-31T21:15:59.499Z,29.63
2019-01-31T21:18:30.912Z,28.10
2019-01-31T21:21:05.300Z,26.60
2019-01-31T21:23:40.614Z,28.47
2019-01-31T21:26:14.104Z,28.37
2019-01-31T21:28:46.297Z,28.20
2019-01-31T21:31:19.414Z,27.50
2019-01-31T21:33:50.400Z,27.77
2019-01-31T21:36:21.992Z,27.57
2019-01-31T21:39:10.875Z,29.10
2019-01-31T21:41:41.383Z,29.37
2019-01-31T21:44:15.770Z,30.00
2019-01-31T21:47:05.138Z,29.67
2019-01-31T21:49:39.660Z,30.33
2019-01-31T21:52:14.433Z,28.83
2019-01-31T21:54:46.328Z,27.90
2019-01-31T21:57:20.012Z,29.40
2019-01-31T21:59:53.402Z,28.67
2019-01-31T22:02:26.175Z,29.20
2019-01-31T22:05:03.014Z,27.60
2019-01-31T22:07:36.567Z,28.50
2019-01-31T22:10:08.452Z,27.97
2019-01-31T22:13:02.749Z,28.17
2019-01-31T22:15:41.347Z,28.23
2019-01-31T22:18:17.961Z,27.40
2019-01-31T22:20:50.328Z,28.90
2019-01-31T22:23:22.371Z,27.80
2019-01-31T22:25:57.024Z,28.67
2019-01-31T22:28:46.571Z,29.20
2019-01-31T22:31:37.913Z,27.00
2019-01-31T22:34:10.525Z,27.57
2019-01-31T22:36:41.589Z,26.87
2019-01-31T22:39:12.620Z,28.07
2019-01-31T22:42:03.584Z,28.43
2019-01-31T22:44:35.633Z,28.00
2019-01-31T22:47:06.931Z,27.03
2019-01-31T22:49:38.429Z,28.70
2019-01-31T22:52:09.064Z,28.30
2019-01-31T22:54:39.591Z,29.50
2019-01-31T22:57:10.378Z,28.90
2019-01-31T23:03:03.544Z,27.50
2019-01-31T23:05:52.389Z,28.20
2019-01-31T23:08:23.012Z,28.47
2019-01-31T23:10:54.573Z,30.07
2019-01-31T23:13:27.455Z,27.97
2019-01-31T23:16:07.976Z,29.90
2019-01-31T23:19:00.733Z,29.80
2019-01-31T23:21:31.626Z,30.03
2019-01-31T23:24:03.006Z,27.70
2019-01-31T23:26:36.342Z,29.33
2019-01-31T23:29:08.496Z,31.77
2019-01-31T23:31:40.132Z,29.40
2019-01-31T23:34:13.982Z,31.10
2019-01-31T23:36:44.647Z,31.97
2019-01-31T23:39:16.461Z,29.30
2019-01-31T23:41:49.691Z,31.17
2019-01-31T23:44:38.781Z,31.60
2019-01-31T23:47:10.437Z,30.07
2019-01-31T23:49:43.058Z,33.43
2019-01-31T23:52:14.898Z,32.43
2019-01-31T23:54:47.788Z,30.70
2019-01-31T23:57:20.252Z,31.70
2019-01-31T23:59:53.454Z,31.23
